sensor_id;sensor_type;location;lat;lon;timestamp;P1;durP1;ratioP1;P2;durP2;ratioP2
64633;SDS011;51043;52.406;9.690;2022-10-16T03:29:29;6.07;;;2.03;;
64633;SDS011;51043;52.406;9.690;2022-10-16T03:31:56;6.47;;;2.10;;
64633;SDS011;51043;52.406;9.690;2022-10-16T03:34:23;6.33;;;2.23;;
64633;SDS011;51043;52.406;9.690;2022-10-16T03:36:50;7.50;;;2.10;;
64633;SDS011;51043;52.406;9.690;2022-10-16T03:39:18;7.60;;;2.60;;
64633;SDS011;51043;52.406;9.690;2022-10-16T03:41:45;6.40;;;2.23;;
64633;SDS011;51043;52.406;9.690;2022-10-16T03:44:13;7.43;;;2.30;;
64633;SDS011;51043;52.406;9.690;2022-10-16T03:46:40;3.63;;;2.37;;
64633;SDS011;51043;52.406;9.690;2022-10-16T03:49:07;4.53;;;2.13;;
64633;SDS011;51043;52.406;9.690;2022-10-16T03:51:34;5.40;;;2.23;;
64633;SDS011;51043;52.406;9.690;2022-10-16T03:54:01;5.60;;;2.80;;
64633;SDS011;51043;52.406;9.690;2022-10-16T03:56:28;8.50;;;2.50;;
64633;SDS011;51043;52.406;9.690;2022-10-16T03:58:55;6.23;;;2.63;;
64633;SDS011;51043;52.406;9.690;2022-10-16T04:01:22;9.67;;;3.00;;
64633;SDS011;51043;52.406;9.690;2022-10-16T04:03:49;4.77;;;2.10;;
64633;SDS011;51043;52.406;9.690;2022-10-16T04:06:16;7.10;;;2.80;;
64633;SDS011;51043;52.406;9.690;2022-10-16T04:08:43;5.87;;;2.77;;
64633;SDS011;51043;52.406;9.690;2022-10-16T04:11:10;7.27;;;2.60;;
64633;SDS011;51043;52.406;9.690;2022-10-16T04:13:37;8.87;;;2.60;;
64633;SDS011;51043;52.406;9.690;2022-10-16T04:16:05;3.13;;;2.20;;
64633;SDS011;51043;52.406;9.690;2022-10-16T04:18:32;6.43;;;2.57;;
64633;SDS011;51043;52.406;9.690;2022-10-16T04:21:03;6.10;;;2.47;;
64633;SDS011;51043;52.406;9.690;2022-10-16T04:23:31;6.13;;;2.53;;
64633;SDS011;51043;52.406;9.690;2022-10-16T04:25:59;8.50;;;2.20;;
64633;SDS011;51043;52.406;9.690;2022-10-16T04:28:26;6.10;;;2.93;;
64633;SDS011;51043;52.406;9.690;2022-10-16T04:30:54;6.93;;;2.20;;
64633;SDS011;51043;52.406;9.690;2022-10-16T04:33:21;5.00;;;2.37;;
64633;SDS011;51043;52.406;9.690;2022-10-16T04:35:48;5.53;;;2.57;;
64633;SDS011;51043;52.406;9.690;2022-10-16T04:38:23;5.60;;;2.43;;
64633;SDS011;51043;52.406;9.690;2022-10-16T04:40:50;6.77;;;2.70;;
64633;SDS011;51043;52.406;9.690;2022-10-16T04:43:18;4.10;;;2.20;;
64633;SDS011;51043;52.406;9.690;2022-10-16T04:45:45;6.43;;;2.40;;
64633;SDS011;51043;52.406;9.690;2022-10-16T04:48:13;9.40;;;2.43;;
64633;SDS011;51043;52.406;9.690;2022-10-16T04:50:39;4.80;;;2.53;;
64633;SDS011;51043;52.406;9.690;2022-10-16T04:53:08;8.97;;;3.00;;
64633;SDS011;51043;52.406;9.690;2022-10-16T04:55:35;6.23;;;2.27;;
64633;SDS011;51043;52.406;9.690;2022-10-16T04:58:02;6.67;;;2.33;;
64633;SDS011;51043;52.406;9.690;2022-10-16T05:00:29;5.27;;;2.17;;
64633;SDS011;51043;52.406;9.690;2022-10-16T05:02:56;5.43;;;2.40;;
64633;SDS011;51043;52.406;9.690;2022-10-16T05:05:25;8.53;;;2.43;;
64633;SDS011;51043;52.406;9.690;2022-10-16T05:07:53;5.67;;;2.30;;
64633;SDS011;51043;52.406;9.690;2022-10-16T05:10:20;7.30;;;2.40;;
64633;SDS011;51043;52.406;9.690;2022-10-16T05:12:47;3.33;;;2.10;;
64633;SDS011;51043;52.406;9.690;2022-10-16T05:15:14;4.73;;;1.90;;
64633;SDS011;51043;52.406;9.690;2022-10-16T05:17:41;3.60;;;1.90;;
64633;SDS011;51043;52.406;9.690;2022-10-16T05:20:09;6.40;;;2.03;;
64633;SDS011;51043;52.406;9.690;2022-10-16T05:22:36;5.17;;;2.10;;
64633;SDS011;51043;52.406;9.690;2022-10-16T05:25:03;4.40;;;2.13;;
64633;SDS011;51043;52.406;9.690;2022-10-16T05:27:31;3.10;;;1.50;;
64633;SDS011;51043;52.406;9.690;2022-10-16T05:29:58;6.33;;;2.00;;
64633;SDS011;51043;52.406;9.690;2022-10-16T05:32:25;3.53;;;1.80;;
64633;SDS011;51043;52.406;9.690;2022-10-16T05:34:52;5.43;;;1.90;;
64633;SDS011;51043;52.406;9.690;2022-10-16T05:37:19;2.67;;;1.67;;
64633;SDS011;51043;52.406;9.690;2022-10-16T05:39:46;7.37;;;2.10;;
64633;SDS011;51043;52.406;9.690;2022-10-16T05:42:13;6.43;;;1.67;;
64633;SDS011;51043;52.406;9.690;2022-10-16T05:44:40;2.70;;;1.90;;
64633;SDS011;51043;52.406;9.690;2022-10-16T05:47:08;4.63;;;1.87;;
64633;SDS011;51043;52.406;9.690;2022-10-16T05:49:35;5.27;;;1.83;;
64633;SDS011;51043;52.406;9.690;2022-10-16T05:52:03;5.30;;;1.80;;
64633;SDS011;51043;52.406;9.690;2022-10-16T05:54:30;6.07;;;2.00;;
64633;SDS011;51043;52.406;9.690;2022-10-16T05:56:57;3.73;;;1.90;;
64633;SDS011;51043;52.406;9.690;2022-10-16T05:59:24;6.77;;;1.80;;
64633;SDS011;51043;52.406;9.690;2022-10-16T06:01:51;6.47;;;1.83;;
64633;SDS011;51043;52.406;9.690;2022-10-16T06:04:19;6.50;;;2.17;;
64633;SDS011;51043;52.406;9.690;2022-10-16T06:06:46;3.07;;;1.93;;
64633;SDS011;51043;52.406;9.690;2022-10-16T06:09:13;5.27;;;2.20;;
64633;SDS011;51043;52.406;9.690;2022-10-16T06:11:40;3.13;;;2.00;;
64633;SDS011;51043;52.406;9.690;2022-10-16T06:14:07;3.33;;;2.13;;
64633;SDS011;51043;52.406;9.690;2022-10-16T06:16:35;6.73;;;1.90;;
64633;SDS011;51043;52.406;9.690;2022-10-16T06:19:04;13.37;;;2.50;;
64633;SDS011;51043;52.406;9.690;2022-10-16T06:21:35;3.50;;;1.90;;
64633;SDS011;51043;52.406;9.690;2022-10-16T06:24:02;3.60;;;1.83;;
64633;SDS011;51043;52.406;9.690;2022-10-16T06:26:29;5.40;;;1.90;;
64633;SDS011;51043;52.406;9.690;2022-10-16T06:28:57;2.73;;;1.70;;
64633;SDS011;51043;52.406;9.690;2022-10-16T06:31:25;6.77;;;2.00;;
64633;SDS011;51043;52.406;9.690;2022-10-16T06:33:55;5.90;;;2.03;;
64633;SDS011;51043;52.406;9.690;2022-10-16T06:36:23;2.73;;;1.70;;
64633;SDS011;51043;52.406;9.690;2022-10-16T06:38:51;2.93;;;1.53;;
64633;SDS011;51043;52.406;9.690;2022-10-16T06:41:19;3.83;;;1.80;;
64633;SDS011;51043;52.406;9.690;2022-10-16T06:43:47;3.80;;;1.70;;
64633;SDS011;51043;52.406;9.690;2022-10-16T06:46:15;4.10;;;1.90;;
64633;SDS011;51043;52.406;9.690;2022-10-16T06:48:44;4.90;;;1.90;;
64633;SDS011;51043;52.406;9.690;2022-10-16T06:51:12;4.53;;;1.80;;
64633;SDS011;51043;52.406;9.690;2022-10-16T06:53:43;3.47;;;1.60;;
64633;SDS011;51043;52.406;9.690;2022-10-16T06:56:30;3.13;;;1.50;;
64633;SDS011;51043;52.406;9.690;2022-10-16T06:58:58;2.87;;;1.60;;
64633;SDS011;51043;52.406;9.690;2022-10-16T07:01:25;4.20;;;1.80;;
64633;SDS011;51043;52.406;9.690;2022-10-16T07:03:53;2.60;;;1.63;;
64633;SDS011;51043;52.406;9.690;2022-10-16T07:06:20;1.60;;;1.50;;
64633;SDS011;51043;52.406;9.690;2022-10-16T07:08:49;6.17;;;2.10;;
64633;SDS011;51043;52.406;9.690;2022-10-16T07:11:21;6.63;;;3.03;;
64633;SDS011;51043;52.406;9.690;2022-10-16T07:13:50;4.27;;;2.10;;
64633;SDS011;51043;52.406;9.690;2022-10-16T07:16:18;4.77;;;1.87;;
64633;SDS011;51043;52.406;9.690;2022-10-16T07:18:47;6.10;;;1.90;;
64633;SDS011;51043;52.406;9.690;2022-10-16T07:23:43;3.00;;;1.40;;
64633;SDS011;51043;52.406;9.690;2022-10-16T07:26:10;5.53;;;1.60;;
64633;SDS011;51043;52.406;9.690;2022-10-16T07:28:38;4.10;;;1.52;;
64633;SDS011;51043;52.406;9.690;2022-10-16T07:31:07;4.80;;;1.30;;
64633;SDS011;51043;52.406;9.690;2022-10-16T07:33:37;5.50;;;1.30;;
64633;SDS011;51043;52.406;9.690;2022-10-16T07:36:06;3.70;;;1.40;;
64633;SDS011;51043;52.406;9.690;2022-10-16T07:38:34;2.90;;;0.90;;
64633;SDS011;51043;52.406;9.690;2022-10-16T07:41:02;2.97;;;1.20;;
64633;SDS011;51043;52.406;9.690;2022-10-16T07:43:31;4.20;;;1.02;;
64633;SDS011;51043;52.406;9.690;2022-10-16T07:45:58;3.25;;;1.10;;
64633;SDS011;51043;52.406;9.690;2022-10-16T07:48:27;2.70;;;1.30;;
64633;SDS011;51043;52.406;9.690;2022-10-16T07:50:58;3.22;;;1.15;;
64633;SDS011;51043;52.406;9.690;2022-10-16T07:53:26;2.35;;;1.02;;
64633;SDS011;51043;52.406;9.690;2022-10-16T07:56:01;0.98;;;0.70;;
64633;SDS011;51043;52.406;9.690;2022-10-16T07:58:31;1.90;;;1.10;;
64633;SDS011;51043;52.406;9.690;2022-10-16T08:01:02;3.55;;;0.93;;
64633;SDS011;51043;52.406;9.690;2022-10-16T08:03:31;3.20;;;1.40;;
64633;SDS011;51043;52.406;9.690;2022-10-16T08:05:57;1.42;;;1.00;;
64633;SDS011;51043;52.406;9.690;2022-10-16T08:08:25;1.08;;;0.90;;
64633;SDS011;51043;52.406;9.690;2022-10-16T08:10:55;1.42;;;0.90;;
64633;SDS011;51043;52.406;9.690;2022-10-16T08:13:22;1.60;;;0.98;;
64633;SDS011;51043;52.406;9.690;2022-10-16T08:15:49;3.35;;;1.02;;
64633;SDS011;51043;52.406;9.690;2022-10-16T08:18:16;3.03;;;1.10;;
64633;SDS011;51043;52.406;9.690;2022-10-16T08:20:43;2.35;;;1.17;;
64633;SDS011;51043;52.406;9.690;2022-10-16T08:23:13;2.47;;;1.17;;
64633;SDS011;51043;52.406;9.690;2022-10-16T08:25:40;2.25;;;1.10;;
64633;SDS011;51043;52.406;9.690;2022-10-16T08:28:08;7.43;;;1.10;;
64633;SDS011;51043;52.406;9.690;2022-10-16T08:30:36;3.58;;;0.88;;
64633;SDS011;51043;52.406;9.690;2022-10-16T08:33:03;1.33;;;0.90;;
64633;SDS011;51043;52.406;9.690;2022-10-16T08:35:33;0.85;;;0.80;;
64633;SDS011;51043;52.406;9.690;2022-10-16T08:38:02;1.83;;;0.95;;
64633;SDS011;51043;52.406;9.690;2022-10-16T08:40:30;1.60;;;1.00;;
64633;SDS011;51043;52.406;9.690;2022-10-16T08:48:34;4.25;;;1.02;;
64633;SDS011;51043;52.406;9.690;2022-10-16T08:53:55;2.97;;;1.05;;
64633;SDS011;51043;52.406;9.690;2022-10-16T08:56:25;2.33;;;1.00;;
64633;SDS011;51043;52.406;9.690;2022-10-16T08:58:53;1.00;;;0.90;;
64633;SDS011;51043;52.406;9.690;2022-10-16T09:01:22;2.15;;;1.00;;
64633;SDS011;51043;52.406;9.690;2022-10-16T09:06:43;3.13;;;1.08;;
64633;SDS011;51043;52.406;9.690;2022-10-16T09:25:44;0.80;;;0.80;;
64633;SDS011;51043;52.406;9.690;2022-10-16T09:28:14;2.55;;;1.30;;
64633;SDS011;51043;52.406;9.690;2022-10-16T09:30:42;4.18;;;1.10;;
64633;SDS011;51043;52.406;9.690;2022-10-16T09:33:10;4.00;;;1.10;;
64633;SDS011;51043;52.406;9.690;2022-10-16T09:35:39;4.75;;;1.20;;
64633;SDS011;51043;52.406;9.690;2022-10-16T09:38:07;1.70;;;1.00;;
64633;SDS011;51043;52.406;9.690;2022-10-16T09:40:35;3.30;;;1.20;;
64633;SDS011;51043;52.406;9.690;2022-10-16T09:45:57;4.75;;;1.00;;
64633;SDS011;51043;52.406;9.690;2022-10-16T09:48:37;1.02;;;0.93;;
64633;SDS011;51043;52.406;9.690;2022-10-16T09:51:17;2.53;;;1.10;;
64633;SDS011;51043;52.406;9.690;2022-10-16T09:53:47;1.80;;;1.10;;
64633;SDS011;51043;52.406;9.690;2022-10-16T09:56:22;4.13;;;1.20;;
64633;SDS011;51043;52.406;9.690;2022-10-16T09:58:55;5.70;;;1.20;;
64633;SDS011;51043;52.406;9.690;2022-10-16T10:01:49;2.72;;;1.00;;
64633;SDS011;51043;52.406;9.690;2022-10-16T10:04:20;3.10;;;1.15;;
64633;SDS011;51043;52.406;9.690;2022-10-16T10:06:52;1.65;;;1.00;;
64633;SDS011;51043;52.406;9.690;2022-10-16T10:09:22;1.92;;;1.20;;
64633;SDS011;51043;52.406;9.690;2022-10-16T10:14:27;2.15;;;0.90;;
64633;SDS011;51043;52.406;9.690;2022-10-16T10:19:42;4.40;;;1.30;;
64633;SDS011;51043;52.406;9.690;2022-10-16T10:22:19;3.22;;;1.05;;
64633;SDS011;51043;52.406;9.690;2022-10-16T10:27:43;5.15;;;1.13;;
64633;SDS011;51043;52.406;9.690;2022-10-16T10:33:28;2.83;;;1.42;;
64633;SDS011;51043;52.406;9.690;2022-10-16T10:39:06;3.05;;;1.00;;
64633;SDS011;51043;52.406;9.690;2022-10-16T10:50:06;3.67;;;0.90;;
64633;SDS011;51043;52.406;9.690;2022-10-16T10:52:59;2.50;;;1.02;;
64633;SDS011;51043;52.406;9.690;2022-10-16T10:59:02;4.18;;;1.40;;
64633;SDS011;51043;52.406;9.690;2022-10-16T11:04:15;3.05;;;1.38;;
64633;SDS011;51043;52.406;9.690;2022-10-16T11:06:53;12.45;;;2.95;;
64633;SDS011;51043;52.406;9.690;2022-10-16T11:09:26;6.07;;;2.25;;
64633;SDS011;51043;52.406;9.690;2022-10-16T11:12:06;3.05;;;1.15;;
64633;SDS011;51043;52.406;9.690;2022-10-16T11:17:30;3.92;;;1.60;;
64633;SDS011;51043;52.406;9.690;2022-10-16T11:20:18;4.20;;;1.10;;
64633;SDS011;51043;52.406;9.690;2022-10-16T11:23:00;7.20;;;1.50;;
64633;SDS011;51043;52.406;9.690;2022-10-16T11:25:37;3.03;;;1.13;;
64633;SDS011;51043;52.406;9.690;2022-10-16T11:33:22;8.13;;;1.23;;
64633;SDS011;51043;52.406;9.690;2022-10-16T11:39:04;3.15;;;1.30;;
64633;SDS011;51043;52.406;9.690;2022-10-16T11:41:45;3.10;;;1.25;;
64633;SDS011;51043;52.406;9.690;2022-10-16T11:44:36;6.15;;;1.40;;
64633;SDS011;51043;52.406;9.690;2022-10-16T11:56:07;1.88;;;1.08;;
64633;SDS011;51043;52.406;9.690;2022-10-16T12:01:16;3.15;;;1.60;;
64633;SDS011;51043;52.406;9.690;2022-10-16T12:06:53;1.67;;;1.00;;
64633;SDS011;51043;52.406;9.690;2022-10-16T12:09:29;6.65;;;1.40;;
64633;SDS011;51043;52.406;9.690;2022-10-16T12:11:58;2.08;;;1.00;;
64633;SDS011;51043;52.406;9.690;2022-10-16T12:16:59;2.85;;;1.02;;
64633;SDS011;51043;52.406;9.690;2022-10-16T12:19:59;2.15;;;1.08;;
64633;SDS011;51043;52.406;9.690;2022-10-16T12:23:21;7.35;;;1.10;;
64633;SDS011;51043;52.406;9.690;2022-10-16T12:28:03;1.58;;;0.90;;
64633;SDS011;51043;52.406;9.690;2022-10-16T12:30:34;2.53;;;1.27;;
64633;SDS011;51043;52.406;9.690;2022-10-16T12:33:03;3.97;;;1.50;;
64633;SDS011;51043;52.406;9.690;2022-10-16T12:35:34;3.80;;;1.20;;
64633;SDS011;51043;52.406;9.690;2022-10-16T12:38:18;3.50;;;1.10;;
64633;SDS011;51043;52.406;9.690;2022-10-16T12:40:46;2.10;;;1.30;;
64633;SDS011;51043;52.406;9.690;2022-10-16T12:43:26;3.28;;;1.10;;
64633;SDS011;51043;52.406;9.690;2022-10-16T12:48:32;4.50;;;1.52;;
64633;SDS011;51043;52.406;9.690;2022-10-16T12:53:45;3.35;;;1.23;;
64633;SDS011;51043;52.406;9.690;2022-10-16T12:56:23;3.60;;;0.95;;
64633;SDS011;51043;52.406;9.690;2022-10-16T13:01:41;8.63;;;1.00;;
64633;SDS011;51043;52.406;9.690;2022-10-16T13:10:33;4.10;;;1.27;;
64633;SDS011;51043;52.406;9.690;2022-10-16T13:13:36;0.80;;;0.68;;
64633;SDS011;51043;52.406;9.690;2022-10-16T13:22:17;3.92;;;1.10;;
64633;SDS011;51043;52.406;9.690;2022-10-16T13:27:55;3.70;;;0.90;;
64633;SDS011;51043;52.406;9.690;2022-10-16T13:30:27;2.65;;;1.52;;
64633;SDS011;51043;52.406;9.690;2022-10-16T13:32:59;4.90;;;1.30;;
64633;SDS011;51043;52.406;9.690;2022-10-16T13:35:30;2.90;;;1.27;;
64633;SDS011;51043;52.406;9.690;2022-10-16T13:38:04;2.42;;;1.35;;
64633;SDS011;51043;52.406;9.690;2022-10-16T13:43:44;2.42;;;1.13;;
64633;SDS011;51043;52.406;9.690;2022-10-16T13:46:15;3.22;;;1.10;;
64633;SDS011;51043;52.406;9.690;2022-10-16T13:49:00;2.97;;;1.00;;
64633;SDS011;51043;52.406;9.690;2022-10-16T13:51:29;3.92;;;1.20;;
64633;SDS011;51043;52.406;9.690;2022-10-16T13:53:57;2.72;;;1.30;;
64633;SDS011;51043;52.406;9.690;2022-10-16T13:56:25;4.05;;;1.30;;
64633;SDS011;51043;52.406;9.690;2022-10-16T13:58:58;6.05;;;1.23;;
64633;SDS011;51043;52.406;9.690;2022-10-16T14:01:28;2.80;;;1.10;;
64633;SDS011;51043;52.406;9.690;2022-10-16T14:04:01;1.98;;;0.93;;
64633;SDS011;51043;52.406;9.690;2022-10-16T14:06:33;3.05;;;1.17;;
64633;SDS011;51043;52.406;9.690;2022-10-16T14:09:06;2.88;;;1.10;;
64633;SDS011;51043;52.406;9.690;2022-10-16T14:11:37;4.38;;;1.30;;
64633;SDS011;51043;52.406;9.690;2022-10-16T14:14:11;2.40;;;1.30;;
64633;SDS011;51043;52.406;9.690;2022-10-16T14:16:39;2.60;;;1.10;;
64633;SDS011;51043;52.406;9.690;2022-10-16T14:19:18;4.00;;;1.30;;
64633;SDS011;51043;52.406;9.690;2022-10-16T14:21:50;2.85;;;1.23;;
64633;SDS011;51043;52.406;9.690;2022-10-16T14:26:59;3.42;;;1.20;;
64633;SDS011;51043;52.406;9.690;2022-10-16T14:29:28;2.38;;;1.33;;
64633;SDS011;51043;52.406;9.690;2022-10-16T14:32:03;5.70;;;1.67;;
64633;SDS011;51043;52.406;9.690;2022-10-16T14:37:23;1.95;;;1.25;;
64633;SDS011;51043;52.406;9.690;2022-10-16T14:39:53;1.02;;;0.93;;
64633;SDS011;51043;52.406;9.690;2022-10-16T14:42:22;4.57;;;1.15;;
64633;SDS011;51043;52.406;9.690;2022-10-16T14:44:51;2.90;;;1.00;;
64633;SDS011;51043;52.406;9.690;2022-10-16T14:47:20;2.20;;;1.10;;
64633;SDS011;51043;52.406;9.690;2022-10-16T14:49:51;3.10;;;1.30;;
64633;SDS011;51043;52.406;9.690;2022-10-16T14:52:21;3.95;;;1.33;;
64633;SDS011;51043;52.406;9.690;2022-10-16T14:54:48;3.00;;;1.40;;
64633;SDS011;51043;52.406;9.690;2022-10-16T14:57:16;3.72;;;1.40;;
64633;SDS011;51043;52.406;9.690;2022-10-16T14:59:45;2.35;;;1.20;;
64633;SDS011;51043;52.406;9.690;2022-10-16T15:05:04;2.50;;;1.10;;
64633;SDS011;51043;52.406;9.690;2022-10-16T15:07:40;2.92;;;0.98;;
64633;SDS011;51043;52.406;9.690;2022-10-16T15:10:08;1.77;;;0.98;;
64633;SDS011;51043;52.406;9.690;2022-10-16T15:12:36;2.80;;;1.10;;
64633;SDS011;51043;52.406;9.690;2022-10-16T15:15:11;5.28;;;1.48;;
64633;SDS011;51043;52.406;9.690;2022-10-16T15:17:50;1.20;;;0.95;;
64633;SDS011;51043;52.406;9.690;2022-10-16T20:54:53;6.00;;;5.20;;
64633;SDS011;51043;52.406;9.690;2022-10-16T20:57:20;9.93;;;5.43;;
64633;SDS011;51043;52.406;9.690;2022-10-16T20:59:47;7.53;;;5.83;;
64633;SDS011;51043;52.406;9.690;2022-10-16T21:02:16;7.57;;;5.93;;
64633;SDS011;51043;52.406;9.690;2022-10-16T21:04:42;9.27;;;5.80;;
64633;SDS011;51043;52.406;9.690;2022-10-16T21:07:12;9.93;;;5.37;;
64633;SDS011;51043;52.406;9.690;2022-10-16T21:09:39;9.53;;;5.10;;
64633;SDS011;51043;52.406;9.690;2022-10-16T21:12:06;7.70;;;4.60;;
64633;SDS011;51043;52.406;9.690;2022-10-16T21:14:33;10.40;;;4.50;;
64633;SDS011;51043;52.406;9.690;2022-10-16T21:17:00;10.63;;;4.73;;
64633;SDS011;51043;52.406;9.690;2022-10-16T21:19:28;8.03;;;3.90;;
64633;SDS011;51043;52.406;9.690;2022-10-16T21:21:55;7.13;;;4.10;;
64633;SDS011;51043;52.406;9.690;2022-10-16T21:24:23;6.67;;;4.40;;
64633;SDS011;51043;52.406;9.690;2022-10-16T21:26:49;6.53;;;3.77;;
64633;SDS011;51043;52.406;9.690;2022-10-16T21:29:16;5.97;;;3.67;;
64633;SDS011;51043;52.406;9.690;2022-10-16T21:31:43;13.00;;;3.90;;
64633;SDS011;51043;52.406;9.690;2022-10-16T21:34:10;8.83;;;3.97;;
64633;SDS011;51043;52.406;9.690;2022-10-16T21:36:38;5.87;;;3.70;;
64633;SDS011;51043;52.406;9.690;2022-10-16T21:39:10;5.37;;;4.00;;
64633;SDS011;51043;52.406;9.690;2022-10-16T21:41:38;7.77;;;4.17;;
64633;SDS011;51043;52.406;9.690;2022-10-16T21:44:06;5.73;;;3.70;;
64633;SDS011;51043;52.406;9.690;2022-10-16T21:46:34;7.27;;;3.83;;
64633;SDS011;51043;52.406;9.690;2022-10-16T21:49:03;4.70;;;3.43;;
64633;SDS011;51043;52.406;9.690;2022-10-16T21:51:34;6.87;;;4.27;;
64633;SDS011;51043;52.406;9.690;2022-10-16T21:54:06;8.80;;;3.97;;
64633;SDS011;51043;52.406;9.690;2022-10-16T21:56:35;18.23;;;3.70;;
64633;SDS011;51043;52.406;9.690;2022-10-16T21:59:02;8.50;;;4.07;;
64633;SDS011;51043;52.406;9.690;2022-10-16T22:01:30;7.97;;;3.87;;
64633;SDS011;51043;52.406;9.690;2022-10-16T22:03:57;8.43;;;3.63;;
64633;SDS011;51043;52.406;9.690;2022-10-16T22:06:25;7.10;;;4.13;;
64633;SDS011;51043;52.406;9.690;2022-10-16T22:08:57;5.53;;;3.50;;
64633;SDS011;51043;52.406;9.690;2022-10-16T22:11:30;8.73;;;3.53;;
64633;SDS011;51043;52.406;9.690;2022-10-16T22:14:05;4.63;;;3.40;;
64633;SDS011;51043;52.406;9.690;2022-10-16T22:16:34;6.40;;;3.27;;
64633;SDS011;51043;52.406;9.690;2022-10-16T22:19:02;6.50;;;3.40;;
64633;SDS011;51043;52.406;9.690;2022-10-16T22:21:32;8.40;;;3.50;;
64633;SDS011;51043;52.406;9.690;2022-10-16T22:24:02;5.97;;;3.70;;
64633;SDS011;51043;52.406;9.690;2022-10-16T22:26:33;9.33;;;3.33;;
64633;SDS011;51043;52.406;9.690;2022-10-16T22:29:03;8.40;;;3.60;;
64633;SDS011;51043;52.406;9.690;2022-10-16T22:31:31;5.53;;;3.50;;
64633;SDS011;51043;52.406;9.690;2022-10-16T22:33:59;13.23;;;3.83;;
64633;SDS011;51043;52.406;9.690;2022-10-16T22:36:27;6.27;;;3.60;;
64633;SDS011;51043;52.406;9.690;2022-10-16T22:38:54;4.90;;;3.63;;
64633;SDS011;51043;52.406;9.690;2022-10-16T22:41:21;8.30;;;3.50;;
64633;SDS011;51043;52.406;9.690;2022-10-16T22:43:49;6.43;;;3.87;;
64633;SDS011;51043;52.406;9.690;2022-10-16T22:46:24;5.70;;;3.50;;
64633;SDS011;51043;52.406;9.690;2022-10-16T22:48:52;5.87;;;3.63;;
64633;SDS011;51043;52.406;9.690;2022-10-16T22:51:20;12.57;;;3.90;;
64633;SDS011;51043;52.406;9.690;2022-10-16T22:53:48;6.77;;;3.77;;
64633;SDS011;51043;52.406;9.690;2022-10-16T22:56:16;4.77;;;3.70;;
64633;SDS011;51043;52.406;9.690;2022-10-16T22:58:44;4.73;;;3.83;;
64633;SDS011;51043;52.406;9.690;2022-10-16T23:01:12;8.63;;;4.03;;
64633;SDS011;51043;52.406;9.690;2022-10-16T23:04:00;7.80;;;3.67;;
64633;SDS011;51043;52.406;9.690;2022-10-16T23:06:28;7.63;;;4.00;;
64633;SDS011;51043;52.406;9.690;2022-10-16T23:08:58;6.50;;;4.13;;
64633;SDS011;51043;52.406;9.690;2022-10-16T23:11:26;8.37;;;4.07;;
64633;SDS011;51043;52.406;9.690;2022-10-16T23:13:54;6.10;;;3.60;;
64633;SDS011;51043;52.406;9.690;2022-10-16T23:16:22;6.83;;;3.80;;
64633;SDS011;51043;52.406;9.690;2022-10-16T23:18:49;15.37;;;3.83;;
64633;SDS011;51043;52.406;9.690;2022-10-16T23:21:17;11.67;;;4.37;;
64633;SDS011;51043;52.406;9.690;2022-10-16T23:23:50;6.77;;;3.40;;
64633;SDS011;51043;52.406;9.690;2022-10-16T23:26:19;7.07;;;3.93;;
64633;SDS011;51043;52.406;9.690;2022-10-16T23:28:48;5.07;;;3.93;;
64633;SDS011;51043;52.406;9.690;2022-10-16T23:31:16;6.33;;;3.80;;
